• Join FlightAware (Why Join?)
  • Login
  • US Flag 
09:36PM EST


 

Airport Tracker/Info


-or-


 

Live Flight TrackerFlight Track Log ✈ N960DL ✈ 01-Aug-2013 ✈ KATL - KMIA

Flight Track Log - Related Links

Times and Time Zones

All times are in EDT time to prevent confusion due to time zone crossing. See the N960DL flight status page for this flight to view local times or setup timezone preferences in your user account.

Time Position Orientation Groundspeed Altitude Reporting Facility
EDT Latitude Longitude Course Direction KTS MPH feet Rate Location/Type
10:28AM 33.6333 -84.4833 160° South 189 217 2,600  Level Atlanta TRACON
10:29AM 33.6333 -84.5667 270° West 254 292 4,700 2,460 Climbing Atlanta TRACON
10:30AM 33.6333 -84.6500 270° West 273 314 7,600 2,520 Climbing Atlanta TRACON
10:31AM 33.2606 -84.2359 168° South  Level FlightAware Approximate
10:31AM 33.5692 -84.6994 213° Southwest 293 337 9,800  Level Atlanta Center
10:32AM 33.1441 -84.2068 168° South  Level FlightAware Approximate
10:32AM 33.4856 -84.6939 177° South 283 326 10,000  Level Atlanta Center
10:33AM 33.0273 -84.1813 164° South  Level FlightAware Approximate
10:33AM 33.3856 -84.6781 172° South 313 360 10,300  Level Atlanta Center
10:34AM 32.9142 -84.1373 160° South  Level FlightAware Approximate
10:34AM 33.3108 -84.5833 133° Southeast 355 409 13,900  Level Atlanta Center
10:35AM 33.2403 -84.4983 135° Southeast 355 409 16,300 2,160 Climbing Atlanta Center
10:36AM 33.1403 -84.4481 157° South 370 426 18,300 1,560 Climbing Atlanta Center
10:37AM 33.0361 -84.3956 157° South 390 449 19,500 1,200 Climbing Atlanta Center
10:38AM 32.9214 -84.3383 157° South 432 497 20,800 1,200 Climbing Atlanta Center
10:39AM 32.8025 -84.2811 158° South 457 526 22,000 1,200 Climbing Atlanta Center
10:40AM 32.6817 -84.2117 154° Southeast 473 544 23,300 1,260 Climbing Atlanta Center
10:41AM 32.5544 -84.1472 157° South 478 550 24,600 1,500 Climbing Atlanta Center
10:42AM 32.4292 -84.0856 157° South 488 562 26,400 1,740 Climbing Atlanta Center
10:43AM 32.3019 -84.0217 157° South 488 562 28,100 1,380 Climbing Atlanta Center
10:44AM 32.1953 -83.9283 143° Southeast 486 559 29,200 1,560 Climbing Atlanta Center
10:45AM 32.0886 -83.8331 143° Southeast 486 559 31,300 1,260 Climbing Atlanta Center
10:47AM 31.9469 -83.7006 142° Southeast 500 575 32,300 600 Climbing Jacksonville Center
10:48AM 31.8431 -83.6067 142° Southeast 473 544 32,800 300 Climbing Jacksonville Center
10:49AM 31.7347 -83.5522 157° South 464 534 33,000 60 Climbing Jacksonville Center
10:50AM 31.6161 -83.4806 153° Southeast 469 540 33,000  Level Jacksonville Center
10:51AM 31.4972 -83.4164 155° Southeast 469 540 33,000  Level Jacksonville Center
10:52AM 31.3764 -83.3622 159° South 469 540 33,000  Level Jacksonville Center
10:53AM 31.2533 -83.3153 162° South 469 540 33,000  Level Jacksonville Center
10:54AM 31.1325 -83.2664 161° South 469 540 33,000  Level Jacksonville Center
10:55AM 31.0094 -83.2150 160° South 469 540 33,000  Level Jacksonville Center
10:56AM 30.8822 -83.1636 161° South 469 540 33,000  Level Jacksonville Center
10:57AM 30.7508 -83.1100 161° South 469 540 33,000  Level Jacksonville Center
10:58AM 30.6275 -83.0592 160° South 463 533 33,000  Level Jacksonville Center
10:59AM 30.5067 -83.0083 160° South 463 533 33,000  Level Jacksonville Center
11:00AM 30.3833 -82.9600 161° South 468 539 33,000  Level Jacksonville Center
11:01AM 30.2603 -82.9094 160° South 468 539 33,000  Level Jacksonville Center
11:02AM 30.1392 -82.8589 160° South 468 539 33,000  Level Jacksonville Center
11:03AM 30.0181 -82.8086 160° South 468 539 33,000  Level Jacksonville Center
11:04AM 29.9053 -82.7681 163° South 474 545 33,000  Level Jacksonville Center
11:05AM 29.7842 -82.7203 161° South 469 540 33,000  Level Jacksonville Center
11:06AM 29.6608 -82.6703 161° South 464 534 33,000  Level Jacksonville Center
11:07AM 29.5375 -82.6181 160° South 464 534 33,000  Level Jacksonville Center
11:08AM 29.4144 -82.5708 162° South 464 534 33,000  Level Jacksonville Center
11:09AM 29.2953 -82.5236 161° South 464 534 33,000  Level Jacksonville Center
11:10AM 29.1719 -82.4739 161° South 464 534 33,000  Level Jacksonville Center
11:11AM 29.0486 -82.4531 172° South 464 534 33,000  Level Jacksonville Center
11:12AM 28.9236 -82.4892 194° South 443 510 33,000  Level Jacksonville Center
11:13AM 28.8006 -82.4944 182° South 449 517 33,000  Level Jacksonville Center
11:14AM 28.6606 -82.4786 174° South 449 517 33,000  Level Jacksonville Center
11:17AM 28.3028 -82.4350 174° South 456 525 33,000  Level Miami Center
11:18AM 28.1764 -82.4192 174° South 456 525 33,000  Level Miami Center
11:19AM 28.0517 -82.4061 175° South 461 531 33,000  Level Miami Center
11:20AM 27.9269 -82.3906 174° South 461 531 33,000  Level Miami Center
11:21AM 27.8003 -82.3772 175° South 461 531 33,000  Level Miami Center
11:22AM 27.6778 -82.3619 174° South 461 531 33,000  Level Miami Center
11:23AM 27.5386 -82.3483 175° South 461 531 33,000  Level Miami Center
11:24AM 27.4119 -82.3306 173° South 461 531 33,000  Level Miami Center
11:25AM 27.2850 -82.3175 175° South 461 531 33,000  Level Miami Center
11:26AM 27.1564 -82.2997 173° South 466 536 33,000  Level Miami Center
11:27AM 27.0294 -82.2869 175° South 461 531 33,000 -720 Level Miami Center
11:28AM 26.9050 -82.2694 173° South 461 531 31,600 -1,560 Descending Miami Center
11:29AM 26.7828 -82.2428 169° South 461 531 29,900 -1,980 Descending Miami Center
11:30AM 26.6969 -82.1414 133° Southeast 426 490 27,700 -1,680 Descending Miami Center
11:31AM 26.6175 -82.0264 128° Southeast 443 510 26,600 -900 Descending Miami Center
11:32AM 26.5422 -81.9117 126° Southeast 443 510 26,000 -720 Descending Miami Center
11:33AM 26.4767 -81.8136 127° Southeast 443 510 25,200 -900 Descending Miami Center
11:34AM 26.4072 -81.7042 125° Southeast 443 510 24,200 -1,020 Descending Miami Center
11:35AM 26.3314 -81.5967 128° Southeast 443 510 23,200 -1,800 Descending Miami Center
11:36AM 26.2597 -81.4897 127° Southeast 438 504 20,700 -2,460 Descending Miami Center
11:37AM 26.1878 -81.3872 128° Southeast 427 491 18,300 -2,400 Descending Miami Center
11:38AM 26.1139 -81.2806 128° Southeast 413 475 15,900 -2,100 Descending Miami Center
11:39AM 26.0514 -81.1972 130° Southeast 384 442 14,300 -1,560 Descending Miami Center
11:40AM 25.9894 -81.1072 127° Southeast 311 358 12,900 -1,560 Descending Miami Center
11:41AM 25.9372 -81.0336 128° Southeast 301 346 11,200 -1,500 Descending Miami Center
11:42AM 25.8953 -80.9675 125° Southeast 306 352 9,900 -1,200 Descending Miami Center
11:43AM 25.8831 -80.8817 99° East 276 318 8,900 -1,320 Descending Miami Center
11:44AM 25.8753 -80.7847 95° East 276 318 7,200 -1,200 Descending Miami Center
11:45AM 25.8769 -80.7178 88° East 264 304 6,500 -1,080 Descending Miami Center
11:46AM 25.8767 -80.6508 90° East 239 275 5,200 -1,380 Descending Miami Center
11:47AM 25.8761 -80.5861 91° East 221 254 3,800 -1,140 Descending Miami Center
11:48AM 25.8761 -80.5122 90° East 215 247 3,000 -420 Descending Miami Center
11:49AM 25.8653 -80.4425 100° East 212 244 3,000 -540 Level Miami Center
11:50AM 25.8394 -80.3889 118° Southeast 209 241 2,000 -1,140 Descending Miami Center
11:51AM 25.8175 -80.3442 119° Southeast 146 168 800 -1,200 Descending Miami Center